Time;durP1;ratioP1;P1;durP2;ratioP2;P2;SDS_P1;SDS_P2;PMS_P1;PMS_P2;Temp;Humidity;BMP_temperature;BMP_pressure;BME280_temperature;BME280_humidity;BME280_pressure;Samples;Min_cycle;Max_cycle;Signal;HPM_P1;HPM_P2
2021/07/02 00:02:04;;;;;;;39.67;20.58;;;;;;;;;;5061384;28;20453;-68
2021/07/02 00:04:32;;;;;;;33.78;19.13;;;;;;;;;;5062413;28;20505;-68
2021/07/02 00:06:58;;;;;;;31.65;18.38;;;;;;;;;;5062716;28;20052;-68
2021/07/02 00:09:24;;;;;;;41.95;17.98;;;;;;;;;;5066400;28;20068;-68
2021/07/02 00:11:51;;;;;;;32.50;18.80;;;;;;;;;;5067208;28;20059;-68
2021/07/02 00:14:17;;;;;;;37.72;18.90;;;;;;;;;;5061657;28;20123;-68
2021/07/02 00:16:43;;;;;;;32.85;18.13;;;;;;;;;;5063161;28;20052;-68
2021/07/02 00:19:09;;;;;;;33.05;17.92;;;;;;;;;;5062651;28;20045;-68
2021/07/02 00:21:36;;;;;;;31.13;17.20;;;;;;;;;;5063856;28;20047;-69
2021/07/02 00:24:02;;;;;;;32.60;17.55;;;;;;;;;;5065469;28;20447;-68
2021/07/02 00:26:28;;;;;;;32.75;17.20;;;;;;;;;;5063045;28;20114;-68
2021/07/02 00:28:54;;;;;;;36.65;17.73;;;;;;;;;;5060089;28;20349;-68
2021/07/02 00:31:20;;;;;;;30.35;17.33;;;;;;;;;;5047370;28;20083;-68
2021/07/02 00:33:46;;;;;;;35.30;18.90;;;;;;;;;;5060004;28;20151;-69
2021/07/02 00:36:13;;;;;;;39.70;19.38;;;;;;;;;;5062359;28;20040;-68
2021/07/02 00:38:39;;;;;;;34.30;18.85;;;;;;;;;;5067654;28;20054;-68
2021/07/02 00:41:05;;;;;;;34.60;20.80;;;;;;;;;;5064507;28;20067;-68
2021/07/02 00:43:31;;;;;;;42.03;21.55;;;;;;;;;;5064450;28;20532;-68
2021/07/02 00:45:57;;;;;;;38.08;19.30;;;;;;;;;;5064883;28;20122;-68
2021/07/02 00:48:24;;;;;;;42.80;22.45;;;;;;;;;;5047228;28;20048;-69
2021/07/02 00:50:50;;;;;;;43.35;21.10;;;;;;;;;;5066238;28;20057;-68
2021/07/02 00:53:16;;;;;;;36.05;21.35;;;;;;;;;;5060885;28;20045;-69
2021/07/02 00:55:43;;;;;;;50.70;23.13;;;;;;;;;;5059652;28;20396;-68
2021/07/02 00:58:10;;;;;;;46.50;22.58;;;;;;;;;;5065146;28;20053;-69
2021/07/02 01:00:36;;;;;;;44.08;22.38;;;;;;;;;;5064019;28;20451;-68
2021/07/02 01:03:02;;;;;;;45.88;23.17;;;;;;;;;;5062732;28;20081;-68
2021/07/02 01:05:28;;;;;;;38.40;20.35;;;;;;;;;;5063411;28;20069;-68
2021/07/02 01:07:54;;;;;;;50.95;22.98;;;;;;;;;;5064651;28;20455;-69
2021/07/02 01:10:21;;;;;;;50.45;23.25;;;;;;;;;;5065178;28;20043;-68
2021/07/02 01:12:48;;;;;;;45.78;21.13;;;;;;;;;;5062048;28;20044;-68
2021/07/02 01:15:21;;;;;;;52.22;22.33;;;;;;;;;;5064047;28;20039;-69
2021/07/02 01:17:47;;;;;;;53.78;22.58;;;;;;;;;;5064606;28;20070;-69
2021/07/02 01:20:14;;;;;;;53.35;22.05;;;;;;;;;;5066597;28;20123;-69
2021/07/02 01:22:40;;;;;;;48.88;21.48;;;;;;;;;;5063286;28;20420;-68
2021/07/02 01:25:06;;;;;;;54.22;24.00;;;;;;;;;;5062064;28;20067;-69
2021/07/02 01:27:33;;;;;;;46.60;22.27;;;;;;;;;;5058980;28;20121;-68
2021/07/02 01:30:00;;;;;;;51.20;21.85;;;;;;;;;;5061312;28;20044;-68
2021/07/02 01:32:26;;;;;;;46.78;21.13;;;;;;;;;;5064407;28;20139;-68
2021/07/02 01:34:52;;;;;;;49.03;22.60;;;;;;;;;;5060214;28;20146;-68
2021/07/02 01:37:18;;;;;;;41.63;21.15;;;;;;;;;;5057577;28;20045;-68
2021/07/02 01:39:45;;;;;;;49.40;20.10;;;;;;;;;;5061988;28;20048;-68
2021/07/02 01:42:11;;;;;;;43.22;20.63;;;;;;;;;;5064066;28;20036;-69
2021/07/02 01:44:45;;;;;;;44.60;20.90;;;;;;;;;;5062700;28;20120;-68
2021/07/02 01:47:11;;;;;;;50.22;20.70;;;;;;;;;;5059811;28;20132;-68
2021/07/02 01:49:37;;;;;;;42.35;19.60;;;;;;;;;;5061457;28;20053;-68
2021/07/02 01:52:04;;;;;;;40.10;19.45;;;;;;;;;;5058058;28;20068;-69
2021/07/02 01:54:30;;;;;;;43.13;19.55;;;;;;;;;;5057681;28;20133;-69
2021/07/02 01:56:56;;;;;;;39.78;19.05;;;;;;;;;;5061127;28;20056;-68
2021/07/02 01:59:23;;;;;;;41.40;20.13;;;;;;;;;;5057614;28;20075;-69
2021/07/02 02:01:49;;;;;;;41.53;19.30;;;;;;;;;;5055531;28;20091;-68
2021/07/02 02:04:15;;;;;;;41.72;20.02;;;;;;;;;;5039812;28;20399;-68
2021/07/02 02:06:42;;;;;;;38.67;19.42;;;;;;;;;;5059197;28;20113;-68
2021/07/02 02:09:08;;;;;;;39.75;18.27;;;;;;;;;;5056032;28;20053;-68
2021/07/02 02:11:34;;;;;;;39.72;17.48;;;;;;;;;;5061937;28;20072;-68
2021/07/02 02:14:02;;;;;;;42.65;18.80;;;;;;;;;;5065061;28;20044;-68
2021/07/02 02:16:28;;;;;;;44.58;19.17;;;;;;;;;;5065396;28;20469;-68
2021/07/02 02:18:54;;;;;;;38.35;19.25;;;;;;;;;;5064094;28;20033;-68
2021/07/02 02:21:20;;;;;;;38.45;18.90;;;;;;;;;;5058868;28;20197;-68
2021/07/02 02:23:47;;;;;;;42.13;18.70;;;;;;;;;;5065886;28;20071;-68
2021/07/02 02:26:13;;;;;;;39.08;18.83;;;;;;;;;;5063282;28;20059;-68
2021/07/02 02:28:39;;;;;;;43.05;20.13;;;;;;;;;;5060825;28;20101;-68
2021/07/02 02:31:05;;;;;;;52.90;21.45;;;;;;;;;;5056083;28;20040;-68
2021/07/02 02:33:31;;;;;;;41.28;19.00;;;;;;;;;;5062336;28;20049;-68
2021/07/02 02:35:58;;;;;;;47.85;21.60;;;;;;;;;;5057937;28;20040;-68
2021/07/02 02:38:24;;;;;;;41.28;19.00;;;;;;;;;;5058801;28;20053;-68
2021/07/02 02:40:50;;;;;;;44.20;19.95;;;;;;;;;;5057253;28;20408;-68
2021/07/02 02:43:16;;;;;;;41.60;19.80;;;;;;;;;;5044299;28;20048;-68
2021/07/02 02:45:42;;;;;;;45.28;20.30;;;;;;;;;;5061971;28;20239;-68
2021/07/02 02:48:09;;;;;;;43.50;20.73;;;;;;;;;;5063341;28;20048;-68
2021/07/02 02:50:35;;;;;;;47.38;21.85;;;;;;;;;;5060422;28;20389;-68
2021/07/02 02:53:01;;;;;;;49.53;21.55;;;;;;;;;;5062250;28;20131;-68
2021/07/02 02:55:27;;;;;;;45.80;21.83;;;;;;;;;;5064059;28;20072;-68
2021/07/02 02:57:54;;;;;;;52.88;21.35;;;;;;;;;;5063404;28;20110;-69
2021/07/02 03:00:20;;;;;;;52.15;20.67;;;;;;;;;;5047388;28;20090;-68
2021/07/02 03:02:46;;;;;;;43.55;20.50;;;;;;;;;;5061720;28;20164;-68
2021/07/02 03:05:12;;;;;;;42.75;20.48;;;;;;;;;;5058888;28;20055;-68
2021/07/02 03:07:41;;;;;;;40.63;19.77;;;;;;;;;;5064024;28;20037;-68
2021/07/02 03:10:08;;;;;;;49.60;20.80;;;;;;;;;;5066386;28;20037;-68
2021/07/02 03:12:34;;;;;;;44.05;21.40;;;;;;;;;;5061775;28;20116;-68
2021/07/02 03:15:01;;;;;;;47.35;20.27;;;;;;;;;;5061404;28;20468;-68
2021/07/02 03:17:27;;;;;;;44.25;21.17;;;;;;;;;;5062828;28;20056;-68
2021/07/02 03:19:53;;;;;;;43.58;20.00;;;;;;;;;;5046181;28;20043;-68
2021/07/02 03:22:19;;;;;;;42.95;20.02;;;;;;;;;;5062202;28;20052;-68
2021/07/02 03:24:46;;;;;;;38.83;19.75;;;;;;;;;;5060995;28;20040;-68
2021/07/02 03:27:12;;;;;;;41.22;20.00;;;;;;;;;;5060538;28;20131;-68
2021/07/02 03:29:38;;;;;;;44.00;19.52;;;;;;;;;;5062357;28;20045;-68
2021/07/02 03:32:07;;;;;;;42.22;20.05;;;;;;;;;;5064212;28;20151;-68
2021/07/02 03:34:34;;;;;;;44.63;19.85;;;;;;;;;;5064290;28;20056;-69
2021/07/02 03:37:00;;;;;;;42.40;19.83;;;;;;;;;;5064607;28;20041;-68
2021/07/02 03:39:26;;;;;;;36.53;17.77;;;;;;;;;;5066923;28;20063;-68
2021/07/02 03:41:53;;;;;;;41.33;19.23;;;;;;;;;;5064066;28;20079;-68
2021/07/02 03:44:19;;;;;;;38.72;18.92;;;;;;;;;;5059768;28;20037;-68
2021/07/02 03:46:45;;;;;;;36.00;18.17;;;;;;;;;;5060573;28;20407;-68
2021/07/02 03:49:11;;;;;;;36.63;17.77;;;;;;;;;;5063421;28;20048;-68
2021/07/02 03:51:37;;;;;;;35.22;18.55;;;;;;;;;;5060851;28;20507;-68
2021/07/02 03:54:04;;;;;;;38.75;18.70;;;;;;;;;;5068057;28;20043;-68
2021/07/02 03:56:30;;;;;;;35.95;18.33;;;;;;;;;;5065602;28;20053;-68
2021/07/02 03:58:56;;;;;;;43.50;19.83;;;;;;;;;;5043730;28;20045;-68
2021/07/02 04:01:22;;;;;;;38.95;19.17;;;;;;;;;;5061165;28;20051;-68
2021/07/02 04:03:49;;;;;;;34.33;18.02;;;;;;;;;;5064548;28;20415;-69
2021/07/02 04:06:15;;;;;;;38.97;19.10;;;;;;;;;;5064249;28;20052;-68
2021/07/02 04:08:41;;;;;;;45.80;19.63;;;;;;;;;;5063838;28;20135;-68
2021/07/02 04:11:08;;;;;;;40.47;20.77;;;;;;;;;;5063352;28;20556;-68
2021/07/02 04:13:35;;;;;;;38.70;19.85;;;;;;;;;;5064464;28;20061;-68
2021/07/02 04:16:02;;;;;;;38.83;19.63;;;;;;;;;;5063468;28;20033;-68
2021/07/02 04:18:28;;;;;;;38.67;19.50;;;;;;;;;;5063923;28;20127;-68
2021/07/02 04:20:55;;;;;;;40.45;20.02;;;;;;;;;;5065652;28;20398;-68
2021/07/02 04:23:21;;;;;;;37.80;20.15;;;;;;;;;;5063397;28;20053;-68
2021/07/02 04:25:47;;;;;;;44.33;19.83;;;;;;;;;;5058378;28;20850;-68
2021/07/02 04:28:13;;;;;;;37.80;19.73;;;;;;;;;;5063860;28;20155;-68
2021/07/02 04:30:40;;;;;;;43.75;20.20;;;;;;;;;;5066555;28;20037;-68
2021/07/02 04:33:06;;;;;;;44.10;20.35;;;;;;;;;;5063385;28;20115;-68
2021/07/02 04:35:32;;;;;;;34.78;19.38;;;;;;;;;;5058932;28;20119;-68
2021/07/02 04:37:58;;;;;;;35.20;19.70;;;;;;;;;;5063971;28;20108;-68
2021/07/02 04:40:24;;;;;;;37.83;17.67;;;;;;;;;;5061019;28;20040;-68
2021/07/02 04:42:51;;;;;;;35.13;19.55;;;;;;;;;;5062700;28;20369;-68
2021/07/02 04:45:17;;;;;;;34.08;18.45;;;;;;;;;;5060213;28;20040;-68
2021/07/02 04:47:43;;;;;;;35.72;18.35;;;;;;;;;;5060905;28;20166;-68
2021/07/02 04:50:10;;;;;;;32.17;16.95;;;;;;;;;;5046548;28;20431;-68
2021/07/02 04:52:36;;;;;;;32.10;16.50;;;;;;;;;;5063940;28;20135;-68
2021/07/02 04:55:03;;;;;;;30.70;15.95;;;;;;;;;;5059730;28;20408;-70
2021/07/02 04:57:29;;;;;;;30.85;16.10;;;;;;;;;;5065629;28;20044;-68
2021/07/02 04:59:59;;;;;;;31.23;15.90;;;;;;;;;;5062662;28;20055;-68
2021/07/02 05:02:26;;;;;;;31.27;17.58;;;;;;;;;;5066881;28;20457;-68
2021/07/02 05:04:52;;;;;;;31.90;16.75;;;;;;;;;;5058532;28;20036;-68
2021/07/02 05:07:18;;;;;;;31.17;17.02;;;;;;;;;;5058819;28;20056;-68
2021/07/02 05:09:44;;;;;;;31.48;16.42;;;;;;;;;;5064607;28;20108;-68
2021/07/02 05:12:11;;;;;;;28.63;16.58;;;;;;;;;;5060855;28;20048;-69
2021/07/02 05:14:37;;;;;;;41.97;17.58;;;;;;;;;;5060680;28;20399;-69
2021/07/02 05:17:05;;;;;;;30.90;16.15;;;;;;;;;;5065569;28;20484;-69
2021/07/02 05:19:31;;;;;;;32.03;17.00;;;;;;;;;;5060824;28;20049;-68
2021/07/02 05:21:57;;;;;;;30.65;16.00;;;;;;;;;;5058883;28;20119;-69
2021/07/02 05:24:26;;;;;;;30.25;15.57;;;;;;;;;;5058191;28;20163;-69
2021/07/02 05:26:52;;;;;;;32.22;16.10;;;;;;;;;;5066114;28;20072;-69
2021/07/02 05:29:18;;;;;;;25.25;14.10;;;;;;;;;;5059610;28;20037;-68
2021/07/02 05:31:44;;;;;;;27.27;14.88;;;;;;;;;;5063007;28;20065;-69
2021/07/02 05:34:11;;;;;;;24.95;13.98;;;;;;;;;;5056281;28;20063;-68
2021/07/02 05:36:37;;;;;;;21.67;13.52;;;;;;;;;;5064242;28;20072;-68
2021/07/02 05:39:04;;;;;;;24.88;13.90;;;;;;;;;;5063382;28;20037;-68
2021/07/02 05:41:31;;;;;;;27.15;15.05;;;;;;;;;;5061034;28;20493;-68
2021/07/02 05:43:57;;;;;;;24.95;14.25;;;;;;;;;;5070939;28;20075;-68
2021/07/02 05:46:23;;;;;;;24.45;14.25;;;;;;;;;;5070272;28;20036;-69
2021/07/02 05:48:49;;;;;;;28.30;14.50;;;;;;;;;;5070629;28;20064;-68
2021/07/02 05:51:16;;;;;;;24.15;14.50;;;;;;;;;;5070960;28;20060;-69
2021/07/02 05:53:42;;;;;;;30.30;15.70;;;;;;;;;;5070262;28;20044;-69
2021/07/02 05:56:08;;;;;;;30.13;14.75;;;;;;;;;;5070443;28;20044;-68
2021/07/02 05:58:34;;;;;;;27.17;15.50;;;;;;;;;;5071152;28;20115;-69
2021/07/02 06:01:02;;;;;;;28.13;14.55;;;;;;;;;;5069647;28;20037;-69
2021/07/02 06:03:28;;;;;;;27.85;16.02;;;;;;;;;;5070538;28;20056;-69
2021/07/02 06:05:54;;;;;;;27.85;15.30;;;;;;;;;;5070681;28;20053;-71
2021/07/02 06:08:21;;;;;;;31.70;16.60;;;;;;;;;;5069988;28;20135;-69
2021/07/02 06:10:47;;;;;;;27.40;14.88;;;;;;;;;;5070209;28;20120;-68
2021/07/02 06:13:33;;;;;;;30.13;17.83;;;;;;;;;;5055343;28;20053;-69
2021/07/02 06:15:59;;;;;;;38.47;16.83;;;;;;;;;;5069645;28;20135;-69
2021/07/02 06:18:26;;;;;;;28.40;17.23;;;;;;;;;;5070293;28;20044;-68
2021/07/02 06:20:52;;;;;;;28.77;15.63;;;;;;;;;;5070390;28;20084;-68
2021/07/02 06:23:20;;;;;;;29.42;17.02;;;;;;;;;;5069325;28;20095;-68
2021/07/02 06:25:46;;;;;;;36.05;17.85;;;;;;;;;;5070054;28;20048;-69
2021/07/02 06:28:12;;;;;;;30.92;17.15;;;;;;;;;;5069692;28;20078;-68
2021/07/02 06:30:39;;;;;;;42.95;18.38;;;;;;;;;;5069467;28;20051;-68
2021/07/02 06:33:06;;;;;;;29.00;16.30;;;;;;;;;;5070389;28;20051;-68
2021/07/02 06:35:32;;;;;;;32.28;16.52;;;;;;;;;;5069964;28;20064;-68
2021/07/02 06:37:58;;;;;;;29.00;16.52;;;;;;;;;;5069478;28;20045;-68
2021/07/02 06:40:25;;;;;;;35.17;18.02;;;;;;;;;;5052112;28;20043;-68
2021/07/02 06:42:51;;;;;;;28.80;14.85;;;;;;;;;;5069410;28;20044;-68
2021/07/02 06:45:17;;;;;;;27.95;16.45;;;;;;;;;;5070105;28;20071;-69
2021/07/02 06:47:51;;;;;;;27.80;14.85;;;;;;;;;;5070148;28;20051;-68
2021/07/02 06:50:17;;;;;;;27.65;16.02;;;;;;;;;;5075887;28;20060;-68
2021/07/02 06:52:43;;;;;;;30.17;17.25;;;;;;;;;;5076546;28;20070;-68
2021/07/02 06:55:30;;;;;;;30.52;15.98;;;;;;;;;;5061408;28;20044;-68
2021/07/02 06:57:56;;;;;;;26.48;15.13;;;;;;;;;;5076197;28;20136;-68
2021/07/02 07:00:24;;;;;;;32.63;16.80;;;;;;;;;;5076607;28;20072;-68
2021/07/02 07:02:51;;;;;;;28.17;16.40;;;;;;;;;;5076511;28;20052;-68
2021/07/02 07:05:18;;;;;;;30.70;17.13;;;;;;;;;;5075929;28;20106;-68
2021/07/02 07:07:44;;;;;;;34.97;17.27;;;;;;;;;;5076274;28;20131;-68
2021/07/02 07:10:11;;;;;;;33.75;17.02;;;;;;;;;;5076714;28;20424;-68
2021/07/02 07:12:37;;;;;;;35.92;17.15;;;;;;;;;;5075882;28;20037;-68
2021/07/02 07:15:04;;;;;;;34.97;17.90;;;;;;;;;;5076317;28;20073;-68
2021/07/02 07:17:31;;;;;;;33.08;16.60;;;;;;;;;;5076539;28;20121;-68
2021/07/02 07:19:58;;;;;;;31.83;16.42;;;;;;;;;;5075432;28;20056;-68
2021/07/02 07:22:24;;;;;;;36.03;18.52;;;;;;;;;;5076439;28;20051;-68
2021/07/02 07:24:51;;;;;;;34.92;17.67;;;;;;;;;;5075888;28;20114;-68
2021/07/02 07:27:17;;;;;;;34.90;17.73;;;;;;;;;;5076488;28;20267;-68
2021/07/02 07:29:46;;;;;;;34.20;18.25;;;;;;;;;;5076442;28;20078;-68
2021/07/02 07:32:12;;;;;;;30.73;15.88;;;;;;;;;;5075517;28;20387;-68
2021/07/02 07:37:10;;;;;;;30.70;16.55;;;;;;;;;;5076353;28;20511;-68
2021/07/02 07:39:36;;;;;;;27.10;16.45;;;;;;;;;;5075717;28;20090;-68
2021/07/02 07:42:03;;;;;;;31.67;16.00;;;;;;;;;;5076081;28;20057;-68
2021/07/02 07:44:33;;;;;;;31.77;17.17;;;;;;;;;;5076303;28;20467;-68
2021/07/02 07:47:00;;;;;;;29.40;16.10;;;;;;;;;;5075095;28;20055;-68
2021/07/02 07:49:27;;;;;;;30.13;15.38;;;;;;;;;;5075914;28;20063;-68
2021/07/02 07:54:20;;;;;;;25.63;14.13;;;;;;;;;;5075339;28;20342;-68
2021/07/02 07:56:53;;;;;;;31.45;15.93;;;;;;;;;;5076224;28;20044;-68
2021/07/02 07:59:21;;;;;;;26.52;15.45;;;;;;;;;;5075878;28;20048;-68
2021/07/02 08:01:48;;;;;;;31.08;16.15;;;;;;;;;;5071224;28;20047;-68
2021/07/02 08:04:15;;;;;;;25.08;15.52;;;;;;;;;;5072970;28;20076;-68
2021/07/02 08:06:43;;;;;;;30.25;16.88;;;;;;;;;;5072955;28;20037;-68
2021/07/02 08:09:10;;;;;;;31.58;16.58;;;;;;;;;;5053985;28;20048;-68
2021/07/02 08:11:37;;;;;;;28.65;15.10;;;;;;;;;;5072901;28;20138;-68
2021/07/02 08:14:03;;;;;;;19.08;13.57;;;;;;;;;;5072436;28;20114;-68
2021/07/02 08:16:30;;;;;;;25.95;14.05;;;;;;;;;;5072279;28;20041;-69
2021/07/02 08:18:56;;;;;;;22.92;13.40;;;;;;;;;;5072654;28;20037;-68
2021/07/02 08:21:22;;;;;;;19.88;12.75;;;;;;;;;;5072146;28;20050;-68
2021/07/02 08:23:48;;;;;;;21.95;13.40;;;;;;;;;;5072382;28;20558;-69
2021/07/02 08:26:18;;;;;;;22.02;12.95;;;;;;;;;;5072730;28;20091;-68
2021/07/02 08:31:30;;;;;;;24.10;14.13;;;;;;;;;;5072597;28;20060;-68
2021/07/02 08:33:57;;;;;;;22.92;14.27;;;;;;;;;;5072322;28;20123;-68
2021/07/02 08:36:24;;;;;;;24.13;14.15;;;;;;;;;;5071714;28;20045;-68
2021/07/02 08:38:50;;;;;;;28.73;14.73;;;;;;;;;;5072339;28;20048;-68
2021/07/02 08:41:16;;;;;;;22.63;13.48;;;;;;;;;;5072395;28;20036;-68
2021/07/02 08:43:45;;;;;;;20.15;13.30;;;;;;;;;;5071226;28;20040;-68
2021/07/02 08:46:13;;;;;;;24.73;13.95;;;;;;;;;;5072363;28;20051;-68
2021/07/02 08:48:40;;;;;;;19.92;12.90;;;;;;;;;;5072164;28;20072;-68
2021/07/02 08:51:08;;;;;;;22.95;13.10;;;;;;;;;;5071495;28;20045;-68
2021/07/02 08:53:34;;;;;;;18.60;11.70;;;;;;;;;;5072118;28;20044;-68
2021/07/02 08:56:03;;;;;;;23.75;12.90;;;;;;;;;;5071816;28;20191;-68
2021/07/02 08:58:29;;;;;;;19.48;11.75;;;;;;;;;;5071483;28;20053;-68
2021/07/02 09:00:56;;;;;;;19.05;11.75;;;;;;;;;;5071966;28;20072;-68
2021/07/02 09:03:26;;;;;;;16.00;11.38;;;;;;;;;;5071111;28;20506;-68
2021/07/02 09:05:53;;;;;;;17.73;11.15;;;;;;;;;;5071755;28;20105;-68
2021/07/02 09:08:20;;;;;;;20.52;10.73;;;;;;;;;;5071751;28;20055;-68
2021/07/02 09:10:47;;;;;;;17.20;10.82;;;;;;;;;;5070892;28;20037;-68
2021/07/02 09:13:15;;;;;;;19.92;11.07;;;;;;;;;;5053698;28;20113;-68
2021/07/02 09:15:42;;;;;;;16.33;11.15;;;;;;;;;;5071546;28;20045;-68
2021/07/02 09:18:08;;;;;;;17.70;10.25;;;;;;;;;;5052596;28;20056;-68
2021/07/02 09:20:36;;;;;;;25.73;10.88;;;;;;;;;;5071423;28;20464;-68
2021/07/02 09:23:04;;;;;;;17.10;8.93;;;;;;;;;;5071350;28;20049;-68
2021/07/02 09:25:35;;;;;;;16.60;9.48;;;;;;;;;;5070500;28;20484;-69
2021/07/02 09:28:06;;;;;;;18.00;8.93;;;;;;;;;;5071318;28;20140;-68
2021/07/02 09:30:33;;;;;;;18.25;9.10;;;;;;;;;;5071218;28;20076;-68
2021/07/02 09:33:04;;;;;;;22.10;10.05;;;;;;;;;;5070601;28;20042;-68
2021/07/02 09:35:34;;;;;;;15.48;8.55;;;;;;;;;;5070921;28;20056;-69
2021/07/02 09:38:01;;;;;;;16.95;8.55;;;;;;;;;;5071302;28;20115;-68
2021/07/02 09:40:29;;;;;;;16.35;8.77;;;;;;;;;;5070530;28;20118;-68
2021/07/02 09:43:01;;;;;;;13.65;8.98;;;;;;;;;;5070789;28;20045;-68
2021/07/02 09:45:28;;;;;;;16.63;8.57;;;;;;;;;;5070501;28;20450;-68
2021/07/02 09:47:55;;;;;;;15.30;8.93;;;;;;;;;;5069994;28;20072;-68
2021/07/02 09:50:23;;;;;;;17.52;8.68;;;;;;;;;;5070393;28;20084;-68
2021/07/02 09:52:54;;;;;;;16.85;9.02;;;;;;;;;;5070030;28;20796;-68
2021/07/02 09:55:21;;;;;;;16.38;9.02;;;;;;;;;;5070785;28;20055;-69
2021/07/02 09:57:47;;;;;;;14.80;9.35;;;;;;;;;;5070843;28;20041;-68
2021/07/02 10:00:15;;;;;;;14.82;8.40;;;;;;;;;;5069876;28;20116;-68
2021/07/02 10:02:52;;;;;;;10.88;7.22;;;;;;;;;;5070582;28;20056;-68
2021/07/02 10:05:18;;;;;;;13.77;8.63;;;;;;;;;;5070796;28;20119;-69
2021/07/02 10:07:57;;;;;;;12.80;6.80;;;;;;;;;;5069615;28;20056;-69
2021/07/02 10:10:25;;;;;;;14.77;7.90;;;;;;;;;;5070480;28;20146;-69
2021/07/02 10:12:52;;;;;;;11.63;7.10;;;;;;;;;;5070536;28;20036;-69
2021/07/02 10:15:19;;;;;;;12.88;8.00;;;;;;;;;;5061126;28;20072;-70
2021/07/02 10:17:46;;;;;;;16.15;8.07;;;;;;;;;;5053499;28;20040;-69
2021/07/02 10:20:13;;;;;;;15.45;7.50;;;;;;;;;;5056739;28;20049;-70
2021/07/02 10:22:41;;;;;;;13.20;7.18;;;;;;;;;;5050691;28;20509;-70
2021/07/02 10:25:09;;;;;;;10.27;6.50;;;;;;;;;;5066273;28;20075;-70
2021/07/02 10:27:35;;;;;;;11.07;7.10;;;;;;;;;;5069939;28;20044;-70
2021/07/02 10:30:02;;;;;;;12.40;6.55;;;;;;;;;;5069276;28;20044;-70
2021/07/02 10:32:30;;;;;;;15.38;7.50;;;;;;;;;;5070161;28;20121;-70
2021/07/02 10:34:56;;;;;;;13.90;7.28;;;;;;;;;;5069609;28;20044;-70
2021/07/02 10:37:24;;;;;;;10.60;6.57;;;;;;;;;;5070134;28;20049;-70
2021/07/02 10:39:50;;;;;;;10.65;6.43;;;;;;;;;;5069991;28;20423;-70
2021/07/02 10:42:16;;;;;;;11.30;6.15;;;;;;;;;;5051008;28;20044;-70
2021/07/02 10:44:53;;;;;;;10.32;6.28;;;;;;;;;;5070038;28;20098;-70
2021/07/02 10:47:19;;;;;;;10.30;6.55;;;;;;;;;;5070001;28;20439;-70
2021/07/02 10:49:45;;;;;;;10.23;6.35;;;;;;;;;;5050817;28;20064;-69
2021/07/02 10:52:21;;;;;;;11.95;6.03;;;;;;;;;;5043848;28;20499;-70
2021/07/02 10:54:48;;;;;;;13.82;6.55;;;;;;;;;;5037301;28;20179;-70
2021/07/02 10:57:17;;;;;;;11.52;6.63;;;;;;;;;;5040939;28;20148;-69
2021/07/02 10:59:53;;;;;;;12.85;6.40;;;;;;;;;;5055582;28;20076;-70
2021/07/02 11:02:20;;;;;;;10.93;6.10;;;;;;;;;;5043803;28;20044;-70
2021/07/02 11:04:48;;;;;;;11.18;6.30;;;;;;;;;;5036147;28;20395;-70
2021/07/02 11:07:22;;;;;;;15.90;6.80;;;;;;;;;;5041538;28;20068;-70
2021/07/02 11:09:49;;;;;;;10.00;6.53;;;;;;;;;;5036773;28;20099;-69
2021/07/02 11:12:16;;;;;;;11.65;7.22;;;;;;;;;;5039830;28;20128;-70
2021/07/02 11:15:10;;;;;;;12.15;6.68;;;;;;;;;;5040302;28;20485;-70
2021/07/02 11:17:37;;;;;;;10.95;7.53;;;;;;;;;;5058623;28;20136;-70
2021/07/02 11:20:07;;;;;;;10.07;6.43;;;;;;;;;;5049856;28;20059;-70
2021/07/02 11:22:48;;;;;;;13.25;6.78;;;;;;;;;;5050085;28;20045;-70
2021/07/02 11:25:24;;;;;;;12.65;6.28;;;;;;;;;;5049149;28;20041;-70
2021/07/02 11:27:52;;;;;;;8.65;5.60;;;;;;;;;;5049550;28;20491;-70
2021/07/02 11:30:23;;;;;;;11.75;5.90;;;;;;;;;;5049410;28;20048;-70
2021/07/02 11:32:51;;;;;;;13.05;6.15;;;;;;;;;;5049254;28;20041;-70
2021/07/02 11:35:20;;;;;;;12.80;5.45;;;;;;;;;;5050182;28;20188;-70
2021/07/02 11:38:08;;;;;;;8.98;5.53;;;;;;;;;;5061870;28;20087;-70
2021/07/02 11:40:34;;;;;;;10.20;5.25;;;;;;;;;;5055573;28;20041;-69
2021/07/02 11:43:01;;;;;;;11.73;6.40;;;;;;;;;;5053507;28;20045;-69
2021/07/02 11:45:37;;;;;;;8.63;5.63;;;;;;;;;;5066167;28;20127;-69
2021/07/02 11:48:05;;;;;;;10.35;5.22;;;;;;;;;;5053005;28;20147;-69
2021/07/02 11:50:41;;;;;;;7.78;5.40;;;;;;;;;;5053135;28;20052;-69
2021/07/02 11:53:07;;;;;;;10.68;6.22;;;;;;;;;;5052246;28;20049;-69
2021/07/02 11:55:33;;;;;;;8.55;5.50;;;;;;;;;;5053073;28;20142;-69
2021/07/02 11:58:16;;;;;;;10.23;5.75;;;;;;;;;;5053065;28;20049;-69
2021/07/02 12:00:42;;;;;;;12.30;5.55;;;;;;;;;;5052268;28;20103;-69
2021/07/02 12:03:09;;;;;;;8.80;5.07;;;;;;;;;;5053464;28;20041;-69
2021/07/02 12:05:36;;;;;;;11.68;5.30;;;;;;;;;;5052707;28;20127;-69
2021/07/02 12:08:03;;;;;;;8.98;5.18;;;;;;;;;;5051983;28;20049;-69
2021/07/02 12:10:30;;;;;;;9.98;5.32;;;;;;;;;;5052608;28;20488;-69
2021/07/02 12:13:05;;;;;;;9.77;5.32;;;;;;;;;;5052589;28;20473;-69
2021/07/02 12:15:32;;;;;;;9.57;5.70;;;;;;;;;;5051910;28;20037;-69
2021/07/02 12:18:00;;;;;;;9.50;5.32;;;;;;;;;;5052403;28;20052;-69
2021/07/02 12:20:26;;;;;;;9.20;5.05;;;;;;;;;;5051720;28;20045;-70
2021/07/02 12:23:01;;;;;;;9.52;4.82;;;;;;;;;;5052301;28;20520;-69
2021/07/02 12:25:27;;;;;;;10.73;4.75;;;;;;;;;;5051028;28;20041;-69
2021/07/02 12:27:58;;;;;;;8.15;4.60;;;;;;;;;;5050221;28;20132;-69
2021/07/02 12:30:24;;;;;;;9.65;4.95;;;;;;;;;;5051040;28;20087;-69
2021/07/02 12:32:52;;;;;;;13.95;4.68;;;;;;;;;;5050477;28;20476;-69
2021/07/02 12:35:18;;;;;;;10.48;5.05;;;;;;;;;;5050004;28;20128;-70
2021/07/02 12:37:45;;;;;;;8.68;4.55;;;;;;;;;;5051202;28;20053;-69
2021/07/02 12:40:13;;;;;;;9.43;4.28;;;;;;;;;;5050527;28;20059;-69
2021/07/02 12:42:42;;;;;;;7.80;4.47;;;;;;;;;;5049754;28;20067;-69
2021/07/02 12:45:11;;;;;;;8.80;4.13;;;;;;;;;;5050834;28;20101;-69
2021/07/02 12:47:38;;;;;;;9.30;4.40;;;;;;;;;;5049978;28;20049;-69
2021/07/02 12:50:06;;;;;;;9.32;4.38;;;;;;;;;;5067463;28;20134;-69
2021/07/02 12:55:03;;;;;;;7.03;4.30;;;;;;;;;;5061510;28;20138;-69
2021/07/02 12:57:29;;;;;;;8.48;4.05;;;;;;;;;;5078386;28;20053;-69
2021/07/02 13:00:00;;;;;;;8.05;3.97;;;;;;;;;;5085351;28;20106;-69
2021/07/02 13:02:29;;;;;;;7.80;3.75;;;;;;;;;;5071179;28;20055;-69
2021/07/02 13:04:56;;;;;;;7.15;3.72;;;;;;;;;;5065317;28;20044;-69
2021/07/02 13:07:22;;;;;;;8.93;3.70;;;;;;;;;;5063573;28;20368;-69
2021/07/02 13:10:04;;;;;;;8.30;3.40;;;;;;;;;;5065749;28;20810;-69
2021/07/02 13:12:30;;;;;;;6.75;3.10;;;;;;;;;;5068643;28;20040;-69
2021/07/02 13:15:08;;;;;;;7.78;3.28;;;;;;;;;;5067045;28;20460;-69
2021/07/02 13:17:38;;;;;;;7.32;3.03;;;;;;;;;;5068795;28;20097;-69
2021/07/02 13:20:05;;;;;;;11.35;3.85;;;;;;;;;;5067460;28;20477;-69
2021/07/02 13:22:32;;;;;;;8.13;3.20;;;;;;;;;;5076380;28;20059;-69
2021/07/02 13:25:07;;;;;;;7.78;3.03;;;;;;;;;;5074287;28;20395;-70
2021/07/02 13:27:34;;;;;;;9.45;3.28;;;;;;;;;;5056386;28;20048;-69
2021/07/02 13:30:01;;;;;;;6.15;3.00;;;;;;;;;;5074160;28;20055;-69
2021/07/02 13:32:27;;;;;;;7.22;2.95;;;;;;;;;;5077124;28;20052;-69
2021/07/02 13:34:54;;;;;;;6.97;2.60;;;;;;;;;;5078057;28;20035;-69
2021/07/02 13:37:30;;;;;;;8.77;3.53;;;;;;;;;;5072635;28;20136;-69
2021/07/02 13:39:57;;;;;;;10.30;2.63;;;;;;;;;;5071303;28;20052;-69
2021/07/02 13:42:25;;;;;;;8.48;2.83;;;;;;;;;;5061415;28;20048;-69
2021/07/02 13:44:53;;;;;;;8.13;2.70;;;;;;;;;;5076690;28;20041;-69
2021/07/02 13:47:24;;;;;;;7.97;2.75;;;;;;;;;;5073427;28;20120;-69
2021/07/02 13:49:51;;;;;;;8.70;2.60;;;;;;;;;;5079734;28;20438;-69
2021/07/02 13:52:17;;;;;;;5.53;2.25;;;;;;;;;;5074400;28;20071;-69
2021/07/02 13:54:43;;;;;;;6.95;2.30;;;;;;;;;;5070162;28;20090;-69
2021/07/02 13:57:09;;;;;;;5.97;2.00;;;;;;;;;;5073335;28;20113;-69
2021/07/02 13:59:37;;;;;;;6.13;2.28;;;;;;;;;;5064635;28;20116;-69
2021/07/02 14:02:03;;;;;;;7.50;2.30;;;;;;;;;;5073843;28;20126;-69
2021/07/02 14:04:29;;;;;;;5.82;2.17;;;;;;;;;;5078261;28;20036;-69
2021/07/02 14:06:57;;;;;;;4.88;1.90;;;;;;;;;;5080595;28;20452;-69
2021/07/02 14:09:23;;;;;;;7.78;2.45;;;;;;;;;;5072678;28;20085;-69
2021/07/02 14:11:49;;;;;;;5.60;2.28;;;;;;;;;;5077109;28;20079;-69
2021/07/02 14:14:17;;;;;;;4.30;1.80;;;;;;;;;;5068830;28;20044;-69
2021/07/02 14:16:43;;;;;;;5.82;2.35;;;;;;;;;;5064280;28;20032;-69
2021/07/02 14:19:09;;;;;;;5.22;1.77;;;;;;;;;;5079348;28;20081;-69
2021/07/02 14:21:37;;;;;;;6.20;1.83;;;;;;;;;;5069979;28;20051;-69
2021/07/02 14:24:04;;;;;;;4.53;2.13;;;;;;;;;;5069222;28;20044;-70
2021/07/02 14:26:30;;;;;;;6.03;2.00;;;;;;;;;;5073170;28;20479;-69
2021/07/02 14:28:57;;;;;;;5.47;2.20;;;;;;;;;;5080003;28;20092;-69
2021/07/02 14:31:23;;;;;;;5.05;1.63;;;;;;;;;;5079874;28;20136;-69
2021/07/02 14:33:49;;;;;;;3.70;1.80;;;;;;;;;;5070923;28;20678;-69
2021/07/02 14:36:15;;;;;;;3.70;1.58;;;;;;;;;;5069064;28;20102;-69